Historyczne dane pomiarowe

Dodano dane terminowe – wersja testowa.

Dane z okresu 1951-2019

Wersja bazy: 1.34 [2019-03-16, lista zmian], aktualizacja planowana na 2019-04-15

Dane meteo z obszaru Polski uzyskane na podstawie danych udostępnionych przez Instytut Meteorologii i Gospodarki Wodnej – Państwowy Instytut Badawczy.

 

Wybierz Datę:    

       

TemperaturaWilgotnośćWiatrCiśnienieOpadyŚniegCzas trwania zjawisk
 Stacja t tx tn tng RH VA  wxwx mslp ppp RRR   cm mm wxwxwxwxwxwxwx
1951-10-11 4.9 12.6 -0.1- 83.0- 3.0 1.0---- 0.0------------
1951-10-12 7.7 16.5 -0.4- 74.8- 0.0 2.7---- 0.0------------
1951-10-13 6.6 15.2 -0.4- 80.3- 2.3 0.7---- 0.0------------
1951-10-14 7.4 16.6 0.3- 78.0- 0.0 1.3---- 0.0------------
1951-10-15 6.3 14.9 -0.8- 74.8- 0.0 1.0---- 0.0------------
1951-10-16 6.4 16.1 -1.4- 76.0- 0.0 1.3---- 0.0------------
1951-10-17 6.8 17.4 -1.0- 70.3- 0.0 2.3---- 0.0------------
1951-10-18 7.5 16.1 -1.4- 70.8- 3.0 1.0---- 0.0------------
1951-10-19 6.5 16.9 -1.3- 78.5- 0.0 2.3---- 0.0------------
1951-10-20 8.5 16.7 1.9- 76.5- 3.0 1.7---- 0.0------------
1951-10-21 11.4 18.5 6.0- 77.3- 5.3 0.7---- 0.0------------
1951-10-22 12.3 18.4 8.7- 76.8- 4.0 2.3---- 0.0------------
1951-10-23 11.5 17.0 7.5- 90.8- 7.7 1.0---- 1.3------------
1951-10-24 9.4 11.0 7.9- 99.3- 8.0 1.3---- 1.4------------
1951-10-25 8.3 14.0 5.3- 85.3- 2.7 0.7---- 0.0------------
1951-10-26 3.7 12.1 -1.2- 88.3- 2.0 0.0---- 0.0------------
1951-10-27 4.9 11.6 -2.4- 84.3- 2.7 1.3---- 0.0------------
1951-10-28 5.1 11.4 0.3- 91.3- 4.0 0.7---- 0.0------------
1951-10-29 5.4 12.5 -0.4- 76.8- 0.0 1.7---- 0.0------------
1951-10-30 6.8 13.4 1.1- 69.8- 0.7 3.0---- 0.0------------
1951-10-31 8.5 12.9 4.5- 70.3- 4.0 4.0---- 0.0------------
1951-11-01 9.7 14.2 7.7- 80.3- 7.3 1.7---- 0.7------------
1951-11-02 5.9 8.4 5.3- 98.5- 8.0 1.3---- 20.2------------
1951-11-03 5.5 8.4 3.3- 97.5- 8.0 1.7---- 3.2------------
1951-11-04 7.2 8.9 4.8- 96.0- 8.0 0.0---- 0.9------------
1951-11-05 4.7 7.9 3.5- 98.5- 8.0 0.3---- 0.0------------
1951-11-06 4.1 5.9 0.5- 98.3- 8.0 1.7---- 0.0------------
1951-11-07 6.8 9.7 1.9- 86.8- 6.7 1.7---- 0.0------------
1951-11-08 12.2 16.5 7.4- 66.0- 3.3 3.7---- 0.3------------
1951-11-09 11.5 13.4 10.7- 87.3- 6.7 1.3---- 0.5------------
94.4 ms

 

Źródłem pochodzenia danych jest Instytut Meteorologii i Gospodarki Wodnej – Państwowy Instytut Badawczy. Dane Instytutu Meteorologii i Gospodarki Wodnej – Państwowego Instytutu Badawczego zostały przetworzone.

Dane źródłowe można odnaleźć na stronie https://dane.imgw.pl